Colorado Springs, CO (80951)

9:45 AM MDT on September 01, 2014 (GMT -0600)
Weather or not | Change Station
CLOSE
Current Station
Personal Weather Station
Location: Colorado Springs, CO
Elevation: 6545 ft
Nearby Weather Stations

Elev 6545 ft 38.88 °N, 104.70 °W | Updated 3 seconds ago

Partly Cloudy
Partly Cloudy
60.6 °F
Feels Like 60.6 °F
N
0.0
Wind Variable Wind from SE
Gusts 14.0 mph

Today
High -- | Low -- °F
--% Chance of Precip.
Yesterday
High -- | Low -- °F
Precip. -- in
6:27 AM 7:29 PM
Waxing Crescent, 42% visible
Pressure 29.95 in
Visibility 10.0 miles
Clouds Few 5000 ft
Dew Point 47 °F
Humidity 60%
Rainfall 0.00 in
Snow Depth Not available.
UV 3 out of 12
Pollen 9.80 out of 12
Ozone Good
PM2.5 Good
Flu Activity Not available.
METAR KCOS 011454Z 16013KT 10SM FEW050 16/06 A3015 RMK AO2 SLP141 T01560061 51008

More Conditions Fewer Conditions

Pressure 29.95 in
Visibility 10.0 miles
Clouds Few 5000 ft
Dew Point 47 °F
Humidity 60%
Rainfall 0.00 in
Snow Depth Not available.
UV 3 out of 12
Pollen 9.80 out of 12
Ozone Good
PM2.5 Good
Flu Activity Not available.
METAR KCOS 011454Z 16013KT 10SM FEW050 16/06 A3015 RMK AO2 SLP141 T01560061 51008

More Conditions Fewer Conditions

10-Day Weather Forecast

Almanac

Astronomy

Sep. 01, 2014 Rise Set
Actual Time 6:27 AM MDT 7:29 PM MDT
Civil Twilight 6:00 AM MDT 7:56 PM MDT
Nautical Twilight 5:28 AM MDT 8:28 PM MDT
Astronomical Twilight 4:54 AM MDT 9:02 PM MDT
Moon 1:12 PM MDT 11:36 PM MDT
Length of Visible Light 13h 55m
Length of Day
13h 01m
Tomorrow will be 2m 26s shorter.
Waxing Crescent, 42% of the Moon is Illuminated
Today
Waxing Crescent
Sep 2
First Quarter
Sep 8
Full
Sep 15
Last Quarter
Sep 24
New

Today's Extremes

State Highs State Lows

Community

WunderPhotos

Upload Photos

1,749,276 photos uploaded!

Nearby

Air Quality

  Air Quality AQ Index Pollutant
Yesterday Good
OZONE
Yesterday Good
PM2.5
Current Good
OZONE
Current Good
PM2.5
Monday Good
PM2.5
Monday Good
OZONE

Snow Depth

Station Depth Elevation
Echo Lake 0 in 10600 ft
Rough And Tumble 1 in 10360 ft
Michigan Creek 0 in 10600 ft
Jackwhacker Gulch 0 in 10960 ft
Medano Pass 0 in 9620 ft

Earthquake Activity

City Distance Mag. Time & Date
Trinidad, Colorado 124 miles 2.7 4:20 AM MDT
2014-08-31
Minimum magnitude displayed is 2.5.

Coastal Water Temperatures

Place Temperature
No Stations Reporting

Nearby Weather Stations